Tuesday, January 22, 2019, 9:04 PM GMT
Back to Local

CWJB, Ste Foy CS , Que.

Location: , , Canada Lat: 47.3
Local Time: 9:04 PM GMT (21:04 GMT) Lon: -71.267
Time Zone: GMT Elev: 298 ft

Show me the last for .
Show Coded

Time T Td Feel RH Dir Speed Gust Alt SLP Vis Weather Sky Remarks
2019-01-22 20:00 4 -8 -19 58 220° 15 24 - - 0 Peak wind: 25 mph (22 kts) from 220° at 36 min
2019-01-22 19:00 4 -9 -18 53 220° 13 23 - - 0 Peak wind: 23 mph (20 kts) from 230° at 59 min
2019-01-22 18:00 4 -11 -11 49 210° 9 - - - 0 None
2019-01-22 17:00 2 -10 -14 55 220° 10 - - - 0 Peak wind: 20 mph (18 kts) from 240° at 12 min
2019-01-22 16:00 -1 -14 -25 52 220° 13 22 - - 0 Peak wind: 21 mph (19 kts) from 210° at 57 min
2019-01-22 15:00 -3 -14 -16 59 210° 6 - - - 0 None
2019-01-22 14:00 -7 -17 -30 60 210° 9 17 - - 0 Peak wind: 24 mph (21 kts) from 210° at 02 min
2019-01-22 13:00 -8 -18 -32 61 210° 12 20 - - 0 Peak wind: 19 mph (17 kts) from 210° at 57 min
2019-01-22 12:00 -8 - -23 0 220° 7 - - - 0 None
2019-01-22 11:00 -8 - -21 0 200° 6 - - - 0 Peak wind: 19 mph (17 kts) from 210° at 42 min
2019-01-22 10:00 -7 - -30 0 210° 9 17 - - 0 Peak wind: 19 mph (17 kts) from 210° at 30 min
2019-01-22 09:00 -6 -16 -21 60 210° 8 - - - 0 None
2019-01-22 08:00 -4 - - 0 200° 2 - - - 0 None
2019-01-22 07:00 -4 - -26 0 320° 10 17 - - 0 None
2019-01-22 06:00 -2 -17 -14 48 320° 6 - - - 0 None
2019-01-22 05:00 -2 -16 - 49 230° 2 - - - 0 None
2019-01-22 04:00 0 -14 -11 48 320° 6 - - - 0 Peak wind: 19 mph (17 kts) from 320° at 06 min
2019-01-22 03:00 2 -13 -12 49 320° 8 - - - 0 None
2019-01-22 02:00 4 -12 -10 46 320° 9 - - - 0 None
2019-01-22 01:00 3 -11 -11 50 320° 9 - - - 0 None
2019-01-22 00:00 4 -10 -9 50 320° 8 - - - 0 None
2019-01-21 23:00 6 -10 -6 47 320° 7 - - - 0 None
2019-01-21 22:00 4 -10 -8 51 320° 7 - - - 0 None

Support USWX by starting your Amazon purchase here.